Time;durP1;ratioP1;P1;durP2;ratioP2;P2;SDS_P1;SDS_P2;PMS_P1;PMS_P2;Temp;Humidity;BMP_temperature;BMP_pressure;BME280_temperature;BME280_humidity;BME280_pressure;Samples;Min_cycle;Max_cycle;Signal;HPM_P1;HPM_P2
2024/01/22 00:00:39;;;;;;;15.97;10.70;;;2.60;99.90;;;;;;10451888;28;20203;-89
2024/01/22 00:05:42;;;;;;;20.70;10.47;;;2.60;99.90;;;;;;10452027;28;20199;-90
2024/01/22 00:10:44;;;;;;;17.77;9.67;;;2.50;99.90;;;;;;10454242;28;20241;-90
2024/01/22 00:15:47;;;;;;;15.03;9.53;;;2.30;99.90;;;;;;10453694;28;20215;-90
2024/01/22 00:20:49;;;;;;;15.47;9.63;;;2.20;99.90;;;;;;10454743;28;20196;-89
2024/01/22 00:25:52;;;;;;;19.70;10.37;;;2.20;99.90;;;;;;10461638;28;20261;-89
2024/01/22 00:30:54;;;;;;;17.77;11.13;;;2.20;99.90;;;;;;10461187;28;20207;-88
2024/01/22 00:35:57;;;;;;;19.50;10.03;;;2.30;99.90;;;;;;10463020;28;20227;-89
2024/01/22 00:40:59;;;;;;;21.53;9.73;;;2.30;99.90;;;;;;10462934;28;20210;-90
2024/01/22 00:46:02;;;;;;;22.40;10.23;;;2.30;99.90;;;;;;10462898;28;20203;-89
2024/01/22 00:51:05;;;;;;;16.97;9.43;;;2.30;99.90;;;;;;10464074;28;20195;-90
2024/01/22 00:56:07;;;;;;;13.87;8.23;;;2.30;99.90;;;;;;10461846;28;20222;-90
2024/01/22 01:01:11;;;;;;;17.37;9.40;;;2.60;99.90;;;;;;10463324;28;20570;-90
2024/01/22 01:06:14;;;;;;;15.93;9.73;;;2.80;99.90;;;;;;10462008;28;20249;-90
2024/01/22 01:11:17;;;;;;;13.80;8.77;;;2.90;99.90;;;;;;10460535;28;20214;-88
2024/01/22 01:16:19;;;;;;;15.17;8.60;;;2.90;99.90;;;;;;10461613;28;20273;-89
2024/01/22 01:21:22;;;;;;;15.40;9.40;;;3.00;99.90;;;;;;10461399;28;20222;-89
2024/01/22 01:26:25;;;;;;;14.90;8.60;;;3.00;99.90;;;;;;10451995;28;20624;-89
2024/01/22 01:31:29;;;;;;;14.77;9.27;;;3.00;99.90;;;;;;10458729;28;20199;-89
2024/01/22 01:36:32;;;;;;;15.37;9.47;;;3.20;99.90;;;;;;10461544;28;20644;-89
2024/01/22 01:41:34;;;;;;;18.10;10.07;;;3.30;99.90;;;;;;10460833;28;20209;-89
2024/01/22 01:46:37;;;;;;;13.93;8.10;;;3.30;99.90;;;;;;10460987;28;20191;-89
2024/01/22 01:51:39;;;;;;;13.67;9.03;;;3.20;99.90;;;;;;10461046;28;20195;-89
2024/01/22 01:56:42;;;;;;;13.90;9.17;;;3.00;99.90;;;;;;10462134;28;20340;-89
2024/01/22 02:01:45;;;;;;;13.40;7.67;;;2.80;99.90;;;;;;10461102;28;20616;-90
2024/01/22 02:06:47;;;;;;;10.80;7.57;;;2.70;99.90;;;;;;10461646;28;20207;-90
2024/01/22 02:11:50;;;;;;;15.10;7.90;;;2.60;99.90;;;;;;10462028;28;20577;-89
2024/01/22 02:16:52;;;;;;;13.20;8.10;;;2.50;99.90;;;;;;10462030;28;20249;-90
2024/01/22 02:21:55;;;;;;;13.13;8.83;;;2.60;99.90;;;;;;10461689;28;20816;-89
2024/01/22 02:26:58;;;;;;;15.63;8.57;;;2.60;99.90;;;;;;10463930;28;20556;-89
2024/01/22 02:32:00;;;;;;;18.30;9.03;;;2.60;99.90;;;;;;10445868;28;20264;-89
2024/01/22 02:37:03;;;;;;;16.23;8.30;;;2.70;99.90;;;;;;10465873;28;20261;-89
2024/01/22 02:42:05;;;;;;;13.97;8.50;;;2.90;99.90;;;;;;10459491;28;20195;-89
2024/01/22 02:47:08;;;;;;;10.57;7.37;;;2.90;99.90;;;;;;10460539;28;20676;-89
2024/01/22 02:52:11;;;;;;;11.07;7.23;;;2.90;99.90;;;;;;10487288;28;20221;-89
2024/01/22 02:57:14;;;;;;;11.07;6.97;;;2.90;99.90;;;;;;10504460;28;20233;-89
2024/01/22 03:02:16;;;;;;;12.03;7.93;;;2.90;99.90;;;;;;10501730;28;20171;-89
2024/01/22 03:07:19;;;;;;;9.97;7.23;;;3.00;99.90;;;;;;10502495;28;20202;-89
2024/01/22 03:12:22;;;;;;;11.10;6.57;;;3.00;99.90;;;;;;10502135;28;20207;-89
2024/01/22 03:17:24;;;;;;;14.03;7.57;;;3.00;99.90;;;;;;10501707;28;20207;-89
2024/01/22 03:22:27;;;;;;;12.17;7.40;;;3.00;99.90;;;;;;10505020;28;20201;-89
2024/01/22 03:27:29;;;;;;;9.10;6.60;;;3.00;99.90;;;;;;10505963;28;20218;-88
2024/01/22 03:32:32;;;;;;;10.87;7.10;;;3.00;99.90;;;;;;10506749;28;20183;-89
2024/01/22 03:37:34;;;;;;;10.87;7.10;;;2.90;99.90;;;;;;10502874;28;20297;-89
2024/01/22 03:42:37;;;;;;;8.47;6.50;;;2.90;99.90;;;;;;10500358;28;20199;-89
2024/01/22 03:47:39;;;;;;;9.00;6.03;;;3.10;99.90;;;;;;10500044;28;20285;-89
2024/01/22 03:52:42;;;;;;;9.43;6.93;;;3.20;99.90;;;;;;10499204;28;20179;-89
2024/01/22 03:57:44;;;;;;;12.13;7.87;;;3.30;99.90;;;;;;10511805;28;20202;-89
2024/01/22 04:02:48;;;;;;;10.80;7.13;;;3.20;99.90;;;;;;10514639;28;20191;-89
2024/01/22 04:07:50;;;;;;;9.07;6.53;;;3.20;99.90;;;;;;10515500;28;20167;-89
2024/01/22 04:12:55;;;;;;;13.80;7.20;;;3.20;99.90;;;;;;10515053;28;20297;-89
2024/01/22 04:17:57;;;;;;;10.83;7.53;;;3.10;99.90;;;;;;10514224;28;20211;-89
2024/01/22 04:23:00;;;;;;;13.63;7.27;;;3.00;99.90;;;;;;10513715;28;20172;-89
2024/01/22 04:28:03;;;;;;;10.77;7.07;;;3.10;99.90;;;;;;10514739;28;20666;-89
2024/01/22 04:33:05;;;;;;;13.57;7.53;;;3.20;99.90;;;;;;10514055;28;20171;-86
2024/01/22 04:38:08;;;;;;;13.10;8.03;;;3.10;99.90;;;;;;10513224;28;20234;-89
2024/01/22 04:43:11;;;;;;;10.10;6.67;;;3.20;99.90;;;;;;10513990;28;20187;-90
2024/01/22 04:48:13;;;;;;;9.47;6.60;;;3.20;99.90;;;;;;10490458;28;20217;-89
2024/01/22 04:53:16;;;;;;;11.33;7.03;;;3.40;99.90;;;;;;10513393;28;20191;-89
2024/01/22 04:58:19;;;;;;;12.73;7.03;;;3.70;99.90;;;;;;10512058;28;20198;-88
2024/01/22 05:03:23;;;;;;;19.77;11.13;;;3.70;99.90;;;;;;10513264;28;20197;-87
2024/01/22 05:08:26;;;;;;;14.23;8.87;;;3.80;99.90;;;;;;10508498;28;20214;-89
2024/01/22 05:13:29;;;;;;;12.17;7.73;;;3.70;99.90;;;;;;10510095;28;20183;-89
2024/01/22 05:18:31;;;;;;;12.63;7.33;;;3.70;99.90;;;;;;10509350;28;20222;-89
2024/01/22 05:23:34;;;;;;;10.37;7.30;;;3.60;99.90;;;;;;10509716;28;20209;-88
2024/01/22 05:28:36;;;;;;;15.33;7.57;;;3.50;99.90;;;;;;10508854;28;20221;-89
2024/01/22 05:33:39;;;;;;;11.77;7.37;;;3.50;99.90;;;;;;10507274;28;20211;-90
2024/01/22 05:38:42;;;;;;;8.93;7.10;;;3.50;99.90;;;;;;10508290;28;20241;-89
2024/01/22 05:43:44;;;;;;;9.60;6.10;;;3.60;99.90;;;;;;10506966;28;20201;-90
2024/01/22 05:48:47;;;;;;;8.17;6.07;;;3.60;99.90;;;;;;10508471;28;20180;-89
2024/01/22 05:53:50;;;;;;;9.97;6.00;;;3.60;99.90;;;;;;10502698;28;20404;-89
2024/01/22 05:58:53;;;;;;;11.80;6.83;;;3.60;99.90;;;;;;10506967;28;20233;-90
2024/01/22 06:04:00;;;;;;;10.83;7.13;;;3.70;99.90;;;;;;10507347;28;20202;-87
2024/01/22 06:09:03;;;;;;;10.57;6.50;;;3.90;99.90;;;;;;10506960;28;20201;-89
2024/01/22 06:14:08;;;;;;;11.43;7.43;;;4.50;99.90;;;;;;10506972;28;21066;-89
2024/01/22 06:19:10;;;;;;;9.83;7.43;;;4.90;99.90;;;;;;10505240;28;20238;-89
2024/01/22 06:24:13;;;;;;;11.33;6.87;;;4.50;99.90;;;;;;10506920;28;20191;-88
2024/01/22 06:29:15;;;;;;;14.33;9.33;;;4.40;99.90;;;;;;10502639;28;20187;-87
2024/01/22 06:34:18;;;;;;;12.87;7.43;;;4.40;99.90;;;;;;10506094;28;20199;-88
2024/01/22 06:39:21;;;;;;;11.20;7.20;;;4.50;99.90;;;;;;10504211;28;20256;-86
2024/01/22 06:44:23;;;;;;;11.27;6.07;;;4.60;99.90;;;;;;10501352;28;20198;-85
2024/01/22 06:49:26;;;;;;;10.97;6.33;;;4.70;99.90;;;;;;10483193;28;20199;-86
2024/01/22 06:54:28;;;;;;;11.47;6.50;;;5.00;99.90;;;;;;10457265;28;20556;-86
2024/01/22 06:59:30;;;;;;;10.87;7.33;;;5.30;99.90;;;;;;10455500;28;20281;-86
2024/01/22 07:04:33;;;;;;;10.87;7.37;;;5.10;99.90;;;;;;10453426;28;20191;-86
2024/01/22 07:09:36;;;;;;;12.53;6.53;;;4.90;99.90;;;;;;10475796;28;20203;-85
2024/01/22 07:14:39;;;;;;;9.37;7.20;;;5.30;99.90;;;;;;10492232;28;20222;-85
2024/01/22 07:19:42;;;;;;;11.73;6.50;;;5.40;99.90;;;;;;10501163;28;20215;-87
2024/01/22 07:24:45;;;;;;;12.37;6.43;;;5.10;99.90;;;;;;10498837;28;20191;-86
2024/01/22 07:29:47;;;;;;;12.13;6.53;;;5.00;99.90;;;;;;10498500;28;20175;-87
2024/01/22 07:34:50;;;;;;;8.17;5.27;;;5.00;99.90;;;;;;10465033;28;20226;-86
2024/01/22 07:39:53;;;;;;;9.03;5.70;;;5.10;99.90;;;;;;10456308;28;20223;-88
2024/01/22 07:44:55;;;;;;;5.80;4.47;;;5.70;99.90;;;;;;10454951;28;20759;-87
2024/01/22 07:49:59;;;;;;;7.60;5.90;;;5.90;99.90;;;;;;10441724;28;20208;-87
2024/01/22 07:55:02;;;;;;;8.47;5.27;;;6.40;99.90;;;;;;10454927;28;20195;-87
2024/01/22 08:00:11;;;;;;;11.10;6.57;;;6.70;99.90;;;;;;10452337;28;20229;-89
2024/01/22 08:05:14;;;;;;;12.67;6.50;;;7.20;99.90;;;;;;10452609;28;20211;-89
2024/01/22 08:10:17;;;;;;;9.63;5.57;;;7.20;99.90;;;;;;10454756;28;20248;-88
2024/01/22 08:15:20;;;;;;;7.43;5.00;;;7.40;99.90;;;;;;10451397;28;20668;-88
2024/01/22 08:20:22;;;;;;;9.77;5.90;;;7.70;99.90;;;;;;10451197;28;20278;-88
2024/01/22 08:25:29;;;;;;;10.97;7.07;;;7.90;99.90;;;;;;10450704;28;20242;-87
2024/01/22 08:30:32;;;;;;;12.93;5.87;;;7.90;99.90;;;;;;10450293;28;20236;-90
2024/01/22 08:35:34;;;;;;;11.40;6.57;;;8.20;99.90;;;;;;10452095;28;20230;-88
2024/01/22 08:40:37;;;;;;;14.60;8.60;;;8.70;99.90;;;;;;10452718;28;20325;-89
2024/01/22 08:45:41;;;;;;;15.50;8.53;;;7.70;99.90;;;;;;10459222;28;20242;-89
2024/01/22 08:50:45;;;;;;;22.40;10.37;;;7.10;99.90;;;;;;10459203;28;20943;-88
2024/01/22 08:55:48;;;;;;;22.80;11.10;;;6.70;99.90;;;;;;10458171;28;20188;-89
2024/01/22 09:00:51;;;;;;;23.03;10.63;;;6.40;99.90;;;;;;10458278;28;20242;-89
2024/01/22 09:05:53;;;;;;;17.20;9.27;;;6.30;99.90;;;;;;10456347;28;20231;-87
2024/01/22 09:10:57;;;;;;;16.73;8.87;;;6.20;99.90;;;;;;10453947;28;20231;-88
2024/01/22 09:15:59;;;;;;;19.63;10.87;;;6.10;99.90;;;;;;10455872;28;20207;-88
2024/01/22 09:21:03;;;;;;;15.93;8.30;;;6.00;99.90;;;;;;10455315;28;20252;-88
2024/01/22 09:26:05;;;;;;;20.53;10.63;;;5.70;99.90;;;;;;10437999;28;20231;-87
2024/01/22 09:31:08;;;;;;;12.30;8.53;;;5.70;99.90;;;;;;10453893;28;20222;-89
2024/01/22 09:36:10;;;;;;;13.33;7.37;;;5.70;99.90;;;;;;10452318;28;20605;-87
2024/01/22 09:41:13;;;;;;;17.63;10.10;;;5.60;99.90;;;;;;10457965;28;20268;-87
2024/01/22 09:46:16;;;;;;;17.40;9.50;;;5.50;99.90;;;;;;10448685;28;20597;-87
2024/01/22 09:51:19;;;;;;;14.73;8.20;;;5.40;99.90;;;;;;10455778;28;20608;-87
2024/01/22 09:56:23;;;;;;;10.60;6.97;;;5.40;99.90;;;;;;10456239;28;20195;-87
2024/01/22 10:01:27;;;;;;;11.00;6.13;;;5.30;99.90;;;;;;10453059;28;20234;-88
2024/01/22 10:06:33;;;;;;;13.27;7.60;;;5.40;99.90;;;;;;10454945;28;20203;-89
2024/01/22 10:11:36;;;;;;;13.60;8.33;;;5.50;99.90;;;;;;10459118;28;20252;-87
2024/01/22 10:16:39;;;;;;;12.37;6.77;;;5.60;99.90;;;;;;10453117;28;20690;-89
2024/01/22 10:21:41;;;;;;;13.20;8.03;;;6.00;99.90;;;;;;10452842;28;20209;-87
2024/01/22 10:26:44;;;;;;;13.00;8.00;;;6.30;99.90;;;;;;10450985;28;20284;-88
2024/01/22 10:32:07;;;;;;;19.07;9.07;;;6.40;99.90;;;;;;10450924;28;20636;-88
2024/01/22 10:37:11;;;;;;;19.23;9.83;;;6.40;99.90;;;;;;10451274;28;20296;-88
2024/01/22 10:42:16;;;;;;;21.30;12.40;;;6.40;99.90;;;;;;10449385;28;20793;-87
2024/01/22 10:47:19;;;;;;;11.93;7.83;;;6.30;99.90;;;;;;10450965;28;20231;-88
2024/01/22 10:52:24;;;;;;;12.30;6.83;;;6.20;99.90;;;;;;10450038;28;20276;-88
2024/01/22 10:57:38;;;;;;;13.20;8.03;;;6.30;99.90;;;;;;10449432;28;20269;-84
2024/01/22 11:02:46;;;;;;;12.73;7.53;;;6.30;99.90;;;;;;10449246;28;20244;-88
2024/01/22 11:07:53;;;;;;;15.27;7.27;;;6.20;99.90;;;;;;10449609;28;20227;-90
2024/01/22 11:12:57;;;;;;;14.23;8.30;;;6.20;99.90;;;;;;10448434;28;20300;-88
2024/01/22 11:17:59;;;;;;;14.77;8.83;;;6.20;99.90;;;;;;10449404;28;20618;-88
2024/01/22 11:23:04;;;;;;;14.83;9.00;;;6.70;99.90;;;;;;10450043;28;20753;-88
2024/01/22 11:28:12;;;;;;;20.83;11.13;;;6.60;99.90;;;;;;10449930;28;20238;-88
2024/01/22 11:33:21;;;;;;;15.30;9.00;;;6.40;99.90;;;;;;10471018;28;20237;-87
2024/01/22 11:38:42;;;;;;;26.67;11.60;;;6.30;99.90;;;;;;10477545;28;20191;-87
2024/01/22 11:43:45;;;;;;;11.63;8.00;;;6.20;99.90;;;;;;10479965;28;20225;-87
2024/01/22 11:48:47;;;;;;;15.33;8.23;;;6.10;99.90;;;;;;10456467;28;20219;-87
2024/01/22 11:53:52;;;;;;;15.83;9.93;;;6.40;99.90;;;;;;10449545;28;20312;-88
2024/01/22 11:59:01;;;;;;;14.27;8.67;;;6.70;99.90;;;;;;10447927;28;20307;-88
2024/01/22 12:04:09;;;;;;;16.87;9.30;;;6.50;99.90;;;;;;10447766;28;20242;-87
2024/01/22 12:09:19;;;;;;;16.87;9.00;;;6.30;99.90;;;;;;10448638;28;20232;-87
2024/01/22 12:14:23;;;;;;;14.57;7.57;;;6.30;99.90;;;;;;10447470;28;20268;-88
2024/01/22 12:19:26;;;;;;;15.43;8.53;;;6.30;99.90;;;;;;10454295;28;20254;-88
2024/01/22 12:24:29;;;;;;;14.60;8.53;;;6.10;99.90;;;;;;10456551;28;20230;-88
2024/01/22 12:29:32;;;;;;;11.97;8.50;;;6.20;99.90;;;;;;10454894;28;20235;-87
2024/01/22 12:34:35;;;;;;;12.27;8.30;;;6.20;99.90;;;;;;10454649;28;20227;-87
2024/01/22 12:39:37;;;;;;;11.00;7.20;;;6.20;99.90;;;;;;10455650;28;20262;-88
2024/01/22 12:44:40;;;;;;;12.37;6.13;;;6.30;99.90;;;;;;10455958;28;20292;-87
2024/01/22 12:49:43;;;;;;;12.23;6.47;;;6.40;99.90;;;;;;10455456;28;20238;-87
2024/01/22 12:54:46;;;;;;;10.37;6.57;;;6.60;99.90;;;;;;10455348;28;20242;-87
2024/01/22 12:59:49;;;;;;;9.17;5.83;;;6.90;99.90;;;;;;10455528;28;20251;-84
2024/01/22 13:04:51;;;;;;;12.13;5.63;;;7.40;99.90;;;;;;10454069;28;20224;-87
2024/01/22 13:09:54;;;;;;;8.10;6.03;;;8.10;99.90;;;;;;10453694;28;20750;-87
2024/01/22 13:14:57;;;;;;;8.63;4.60;;;8.10;99.90;;;;;;10453879;28;20237;-87
2024/01/22 13:19:59;;;;;;;10.40;5.27;;;8.10;99.90;;;;;;10453689;28;20368;-88
2024/01/22 13:25:02;;;;;;;7.87;4.83;;;8.40;99.90;;;;;;10452804;28;20226;-82
2024/01/22 13:30:07;;;;;;;10.67;6.13;;;8.20;99.90;;;;;;10452735;28;20241;-83
2024/01/22 13:35:10;;;;;;;18.90;9.97;;;8.00;99.90;;;;;;10451177;28;20273;-83
2024/01/22 13:40:13;;;;;;;8.07;6.30;;;7.30;99.90;;;;;;10450271;28;20254;-83
2024/01/22 13:45:16;;;;;;;10.10;6.13;;;6.70;99.90;;;;;;10452773;28;20260;-83
2024/01/22 13:50:19;;;;;;;10.70;7.17;;;6.70;99.90;;;;;;10451846;28;20231;-88
2024/01/22 13:55:22;;;;;;;11.87;6.73;;;6.60;99.90;;;;;;10452144;28;20626;-88
2024/01/22 14:00:25;;;;;;;10.70;6.67;;;6.40;99.90;;;;;;10448323;28;20275;-89
2024/01/22 14:05:30;;;;;;;9.13;6.00;;;7.20;99.90;;;;;;10450402;28;20226;-88
2024/01/22 14:10:33;;;;;;;10.03;6.50;;;6.90;99.90;;;;;;10451549;28;20193;-90
2024/01/22 14:15:36;;;;;;;8.70;6.40;;;6.30;99.90;;;;;;10452198;28;20235;-87
2024/01/22 14:20:39;;;;;;;12.23;7.57;;;6.40;99.90;;;;;;10452067;28;20765;-89
2024/01/22 14:25:42;;;;;;;9.77;5.13;;;6.30;99.90;;;;;;10452320;28;20226;-86
2024/01/22 14:30:45;;;;;;;10.53;6.30;;;6.20;99.90;;;;;;10451560;28;20291;-87
2024/01/22 14:35:48;;;;;;;11.90;6.43;;;6.20;99.90;;;;;;10451306;28;20632;-87
2024/01/22 14:40:52;;;;;;;10.67;6.77;;;6.00;99.90;;;;;;10450793;28;20288;-86
2024/01/22 14:45:55;;;;;;;12.33;6.70;;;6.20;99.90;;;;;;10451092;28;20226;-86
2024/01/22 14:51:00;;;;;;;16.40;9.20;;;6.40;99.90;;;;;;10451104;28;20277;-87
2024/01/22 14:56:06;;;;;;;16.30;9.03;;;6.70;99.90;;;;;;10450604;28;20231;-87
2024/01/22 15:01:09;;;;;;;13.37;8.20;;;6.70;99.90;;;;;;10447812;28;20312;-88
2024/01/22 15:06:11;;;;;;;13.57;7.97;;;6.60;99.90;;;;;;10449811;28;20238;-90
2024/01/22 15:11:14;;;;;;;17.63;10.40;;;6.50;99.90;;;;;;10447894;28;20277;-88
2024/01/22 15:16:16;;;;;;;17.97;8.57;;;6.60;99.90;;;;;;10448286;28;20284;-89
2024/01/22 15:21:19;;;;;;;10.67;6.90;;;6.40;99.90;;;;;;10449009;28;20297;-88
2024/01/22 15:26:22;;;;;;;16.33;8.90;;;6.70;99.90;;;;;;10449681;28;20667;-87
2024/01/22 15:31:25;;;;;;;9.70;6.73;;;6.80;99.90;;;;;;10448115;28;20294;-88
2024/01/22 15:36:28;;;;;;;15.17;8.13;;;7.20;99.90;;;;;;10443463;28;20259;-85
2024/01/22 15:41:31;;;;;;;18.63;8.07;;;8.20;99.90;;;;;;10448166;28;20303;-86
2024/01/22 15:46:36;;;;;;;13.53;7.87;;;8.50;99.90;;;;;;10449045;28;20229;-87
2024/01/22 15:51:39;;;;;;;15.27;10.27;;;8.20;99.90;;;;;;10452057;28;20249;-87
2024/01/22 15:56:41;;;;;;;15.90;8.87;;;8.20;99.90;;;;;;10456550;28;20236;-88
2024/01/22 16:01:44;;;;;;;16.20;10.30;;;8.20;99.90;;;;;;10456413;28;20295;-88
2024/01/22 16:06:46;;;;;;;17.30;10.23;;;8.10;99.90;;;;;;10456364;28;20301;-86
2024/01/22 16:12:08;;;;;;;19.00;12.23;;;7.30;99.90;;;;;;10455899;28;20232;-88
2024/01/22 16:17:11;;;;;;;21.33;14.27;;;6.70;99.90;;;;;;10435669;28;20242;-87
2024/01/22 16:22:13;;;;;;;21.63;14.07;;;5.70;99.90;;;;;;10448618;28;20254;-87
2024/01/22 16:27:16;;;;;;;17.70;12.40;;;5.20;99.90;;;;;;10458058;28;20267;-87
2024/01/22 16:32:18;;;;;;;24.00;15.10;;;5.00;99.90;;;;;;10455456;28;20692;-86
2024/01/22 16:37:21;;;;;;;25.67;14.97;;;5.00;99.90;;;;;;10461162;28;20266;-88
2024/01/22 16:42:23;;;;;;;25.40;14.47;;;4.90;99.90;;;;;;10440167;28;20259;-88
2024/01/22 16:47:26;;;;;;;24.07;13.73;;;4.90;99.90;;;;;;10449714;28;20203;-89
2024/01/22 16:52:28;;;;;;;26.90;16.53;;;5.10;99.90;;;;;;10445460;28;20567;-89
2024/01/22 16:57:31;;;;;;;146.83;76.40;;;4.90;99.90;;;;;;10456742;28;20219;-84
2024/01/22 17:02:33;;;;;;;134.77;64.63;;;5.20;99.90;;;;;;10426911;28;20274;-84
2024/01/22 17:07:36;;;;;;;149.60;75.20;;;5.30;99.90;;;;;;10445349;28;20232;-84
2024/01/22 17:12:38;;;;;;;91.10;50.40;;;5.90;99.90;;;;;;10442785;28;20262;-84
2024/01/22 17:17:42;;;;;;;96.43;55.57;;;6.10;99.90;;;;;;10462579;28;20772;-84
2024/01/22 17:22:44;;;;;;;25.60;16.03;;;6.30;99.90;;;;;;10110702;28;10000415;-85
2024/01/22 17:27:48;;;;;;;27.10;16.87;;;5.70;99.90;;;;;;10445059;28;20292;-86
2024/01/22 17:32:50;;;;;;;27.93;17.20;;;5.30;99.90;;;;;;10444735;28;20601;-86
2024/01/22 17:37:53;;;;;;;30.50;17.40;;;5.20;99.90;;;;;;10448908;28;20254;-87
2024/01/22 17:42:56;;;;;;;22.90;16.47;;;5.10;99.90;;;;;;10448404;28;20300;-87
2024/01/22 17:47:59;;;;;;;26.13;17.20;;;5.10;99.90;;;;;;10450305;28;20228;-86
2024/01/22 17:53:02;;;;;;;27.83;16.73;;;5.10;99.90;;;;;;10448545;28;20699;-86
2024/01/22 17:58:05;;;;;;;24.67;15.27;;;5.00;99.90;;;;;;10444827;28;20239;-86
2024/01/22 18:03:08;;;;;;;21.77;15.70;;;5.00;99.90;;;;;;10448206;28;20246;-86
2024/01/22 18:08:10;;;;;;;25.53;15.70;;;5.00;99.90;;;;;;10449357;28;20288;-86
2024/01/22 18:13:13;;;;;;;21.37;14.73;;;5.00;99.90;;;;;;10443467;28;20777;-85
2024/01/22 18:18:15;;;;;;;21.23;14.67;;;5.00;99.90;;;;;;10448302;28;20251;-84
2024/01/22 18:23:18;;;;;;;44.17;24.67;;;5.10;99.90;;;;;;10450582;28;20253;-84
2024/01/22 18:28:20;;;;;;;22.60;12.97;;;5.20;99.90;;;;;;10444349;28;20284;-83
2024/01/22 18:33:25;;;;;;;68.73;39.27;;;5.30;99.90;;;;;;10440157;28;20247;-83
2024/01/22 18:38:28;;;;;;;102.73;53.57;;;5.30;99.90;;;;;;10446978;28;20219;-84
2024/01/22 18:43:31;;;;;;;141.93;68.97;;;5.40;99.90;;;;;;10448855;28;20291;-87
2024/01/22 18:48:34;;;;;;;16.23;12.57;;;5.50;99.90;;;;;;10448699;28;20244;-84
2024/01/22 18:53:36;;;;;;;25.50;14.50;;;5.20;99.90;;;;;;10448711;28;20231;-87
2024/01/22 18:58:39;;;;;;;24.57;14.33;;;5.00;99.90;;;;;;10448561;28;20738;-87
2024/01/22 19:03:42;;;;;;;22.33;13.37;;;5.00;99.90;;;;;;10447817;28;20231;-86
2024/01/22 19:08:46;;;;;;;17.23;13.47;;;4.90;99.90;;;;;;10449808;28;20664;-87
2024/01/22 19:13:49;;;;;;;19.40;12.70;;;4.80;99.90;;;;;;10432239;28;20829;-87
2024/01/22 19:18:52;;;;;;;18.83;13.40;;;4.80;99.90;;;;;;10447311;28;20713;-87
2024/01/22 19:23:54;;;;;;;25.93;14.03;;;4.80;99.90;;;;;;10447379;28;20609;-87
2024/01/22 19:28:57;;;;;;;1494.03;505.63;;;4.90;99.90;;;;;;10448197;28;20261;-88
2024/01/22 19:33:59;;;;;;;1229.90;507.37;;;5.70;99.90;;;;;;10449423;28;20327;-87
2024/01/22 19:39:03;;;;;;;834.17;440.70;;;7.10;99.90;;;;;;10449741;28;20223;-88
2024/01/22 19:44:06;;;;;;;247.17;135.10;;;8.20;99.90;;;;;;10446616;28;20226;-87
2024/01/22 19:49:08;;;;;;;709.00;403.23;;;9.40;99.90;;;;;;10448462;28;20224;-87
2024/01/22 19:54:12;;;;;;;273.30;145.50;;;9.80;99.90;;;;;;10446601;28;20294;-87
2024/01/22 19:59:15;;;;;;;24.97;13.57;;;9.70;99.90;;;;;;10443680;28;20713;-87
2024/01/22 20:04:18;;;;;;;22.80;14.07;;;8.10;99.90;;;;;;10446647;28;20231;-88
2024/01/22 20:09:22;;;;;;;25.17;16.10;;;6.40;99.90;;;;;;10447128;28;20262;-89
2024/01/22 20:14:25;;;;;;;150.27;75.63;;;5.70;99.90;;;;;;10448276;28;20272;-88
2024/01/22 20:19:27;;;;;;;570.03;259.73;;;5.80;99.90;;;;;;10441315;28;20316;-87
2024/01/22 20:24:30;;;;;;;180.53;89.70;;;7.20;99.90;;;;;;10468212;28;20275;-87
2024/01/22 20:29:33;;;;;;;467.70;246.10;;;8.00;99.90;;;;;;10478065;28;20248;-85
2024/01/22 20:34:35;;;;;;;440.30;242.30;;;10.60;99.90;;;;;;10450109;28;20281;-87
2024/01/22 20:39:40;;;;;;;444.23;246.57;;;10.60;99.90;;;;;;10465909;28;20309;-88
2024/01/22 20:44:44;;;;;;;334.20;175.53;;;11.60;99.90;;;;;;10458215;28;20227;-86
2024/01/22 20:49:46;;;;;;;278.23;135.10;;;11.60;99.90;;;;;;10456839;28;20287;-85
2024/01/22 20:54:49;;;;;;;217.93;120.03;;;11.40;99.90;;;;;;10467976;28;20267;-82
2024/01/22 20:59:51;;;;;;;346.77;179.87;;;11.80;99.90;;;;;;10455684;28;20238;-87
2024/01/22 21:04:54;;;;;;;334.93;180.07;;;11.90;99.90;;;;;;10464685;28;20215;-83
2024/01/22 21:09:59;;;;;;;367.03;207.07;;;12.10;99.90;;;;;;10457963;28;20264;-84
2024/01/22 21:15:03;;;;;;;277.10;151.70;;;12.10;99.90;;;;;;10465081;28;20260;-84
2024/01/22 21:20:06;;;;;;;219.90;118.23;;;12.20;99.90;;;;;;10464649;28;20788;-84
2024/01/22 21:25:11;;;;;;;223.73;132.23;;;12.20;99.90;;;;;;10457602;28;20222;-84
2024/01/22 21:30:14;;;;;;;137.10;84.57;;;11.90;99.90;;;;;;10480901;28;20290;-89
2024/01/22 21:35:16;;;;;;;274.30;156.10;;;11.60;99.90;;;;;;10460872;28;20262;-89
2024/01/22 21:40:19;;;;;;;115.20;67.90;;;11.50;99.90;;;;;;10464658;28;20722;-89
2024/01/22 21:45:21;;;;;;;285.67;163.90;;;11.60;99.90;;;;;;10454470;28;20280;-88
2024/01/22 21:50:24;;;;;;;266.97;152.90;;;12.40;99.90;;;;;;10462301;28;20256;-88
2024/01/22 21:55:27;;;;;;;212.80;117.10;;;12.80;99.90;;;;;;10442663;28;20244;-88
2024/01/22 22:00:30;;;;;;;221.93;126.97;;;12.60;99.90;;;;;;10464250;28;20280;-84
2024/01/22 22:05:34;;;;;;;224.73;119.50;;;12.80;99.90;;;;;;10486286;28;20206;-83
2024/01/22 22:10:39;;;;;;;264.37;139.70;;;12.90;99.90;;;;;;10491097;28;20230;-84
2024/01/22 22:15:42;;;;;;;169.67;86.63;;;13.10;99.90;;;;;;10450556;28;20231;-86
2024/01/22 22:20:44;;;;;;;216.77;117.80;;;13.00;99.90;;;;;;10457517;28;20304;-87
2024/01/22 22:25:50;;;;;;;148.53;78.70;;;13.10;99.90;;;;;;10478247;28;20250;-87
2024/01/22 22:30:52;;;;;;;207.23;115.67;;;13.20;99.90;;;;;;10458329;28;20785;-88
2024/01/22 22:35:55;;;;;;;216.77;112.83;;;13.70;99.90;;;;;;10443203;28;20317;-86
2024/01/22 22:40:58;;;;;;;113.70;62.47;;;13.30;99.90;;;;;;10448031;28;20308;-87
2024/01/22 22:46:03;;;;;;;110.50;66.83;;;13.10;99.90;;;;;;10446312;28;20312;-87
2024/01/22 22:51:05;;;;;;;151.77;81.93;;;13.50;99.90;;;;;;10438537;28;20749;-87
2024/01/22 22:56:11;;;;;;;165.20;92.20;;;13.50;99.90;;;;;;10434754;28;20242;-88
2024/01/22 23:01:14;;;;;;;150.87;86.17;;;13.40;99.90;;;;;;10458029;28;20324;-87
2024/01/22 23:06:17;;;;;;;130.07;71.53;;;13.30;99.90;;;;;;10439788;28;20244;-88
2024/01/22 23:11:19;;;;;;;111.20;58.33;;;13.60;99.90;;;;;;10437343;28;20238;-88
2024/01/22 23:16:22;;;;;;;166.73;96.53;;;13.60;99.90;;;;;;10475936;28;20237;-88
2024/01/22 23:21:24;;;;;;;119.53;64.30;;;13.70;99.90;;;;;;10443021;28;20262;-88
2024/01/22 23:26:27;;;;;;;109.40;61.90;;;13.80;99.90;;;;;;10411690;28;20235;-84
2024/01/22 23:31:31;;;;;;;136.13;78.93;;;13.80;99.90;;;;;;10416515;28;20284;-84
2024/01/22 23:36:34;;;;;;;118.37;69.67;;;13.60;99.90;;;;;;10453431;28;20246;-84
2024/01/22 23:41:37;;;;;;;128.67;74.20;;;13.50;99.90;;;;;;10426297;28;20262;-83
2024/01/22 23:46:39;;;;;;;111.40;71.03;;;13.60;99.90;;;;;;10449660;28;20287;-83
2024/01/22 23:51:42;;;;;;;99.03;60.03;;;13.60;99.90;;;;;;10449481;28;20288;-83
2024/01/22 23:56:44;;;;;;;124.33;73.53;;;13.20;99.90;;;;;;10449663;28;20292;-83
